sensor_id;sensor_type;location;lat;lon;timestamp;pressure;altitude;pressure_sealevel;temperature;humidity
38716;BME280;24833;49.324;8.694;2022-12-10T00:01:30;98707.00;;;1.55;95.58
38716;BME280;24833;49.324;8.694;2022-12-10T00:03:58;98707.00;;;1.55;95.91
38716;BME280;24833;49.324;8.694;2022-12-10T00:06:29;98699.13;;;1.55;96.00
38716;BME280;24833;49.324;8.694;2022-12-10T00:08:58;98697.47;;;1.54;95.96
38716;BME280;24833;49.324;8.694;2022-12-10T00:11:25;98703.56;;;1.54;95.91
38716;BME280;24833;49.324;8.694;2022-12-10T00:13:52;98703.69;;;1.53;96.01
38716;BME280;24833;49.324;8.694;2022-12-10T00:16:22;98701.88;;;1.53;96.02
38716;BME280;24833;49.324;8.694;2022-12-10T00:18:51;98706.31;;;1.53;95.98
38716;BME280;24833;49.324;8.694;2022-12-10T00:21:26;98701.88;;;1.53;96.08
38716;BME280;24833;49.324;8.694;2022-12-10T00:23:54;98701.06;;;1.53;96.00
38716;BME280;24833;49.324;8.694;2022-12-10T00:26:28;98708.97;;;1.53;95.82
38716;BME280;24833;49.324;8.694;2022-12-10T00:28:57;98698.59;;;1.51;95.90
38716;BME280;24833;49.324;8.694;2022-12-10T00:31:35;98704.69;;;1.52;95.88
38716;BME280;24833;49.324;8.694;2022-12-10T00:34:06;98709.94;;;1.52;96.05
38716;BME280;24833;49.324;8.694;2022-12-10T00:36:43;98703.88;;;1.51;95.89
38716;BME280;24833;49.324;8.694;2022-12-10T00:39:18;98701.41;;;1.50;95.66
38716;BME280;24833;49.324;8.694;2022-12-10T00:41:46;98707.66;;;1.49;95.82
38716;BME280;24833;49.324;8.694;2022-12-10T00:44:14;98700.59;;;1.49;95.88
38716;BME280;24833;49.324;8.694;2022-12-10T00:46:42;98703.22;;;1.49;96.02
38716;BME280;24833;49.324;8.694;2022-12-10T00:49:10;98708.66;;;1.48;96.01
38716;BME280;24833;49.324;8.694;2022-12-10T00:51:37;98705.19;;;1.47;96.12
38716;BME280;24833;49.324;8.694;2022-12-10T00:54:05;98713.09;;;1.47;95.91
38716;BME280;24833;49.324;8.694;2022-12-10T00:56:32;98715.88;;;1.46;96.03
38716;BME280;24833;49.324;8.694;2022-12-10T00:59:01;98711.41;;;1.46;95.86
38716;BME280;24833;49.324;8.694;2022-12-10T01:01:37;98715.03;;;1.45;95.75
38716;BME280;24833;49.324;8.694;2022-12-10T01:04:15;98716.84;;;1.45;96.01
38716;BME280;24833;49.324;8.694;2022-12-10T01:06:52;98719.47;;;1.45;95.76
38716;BME280;24833;49.324;8.694;2022-12-10T01:09:24;98722.13;;;1.45;95.65
38716;BME280;24833;49.324;8.694;2022-12-10T01:11:55;98724.75;;;1.45;96.09
38716;BME280;24833;49.324;8.694;2022-12-10T01:14:29;98726.56;;;1.44;95.68
38716;BME280;24833;49.324;8.694;2022-12-10T01:17:00;98733.44;;;1.45;95.97
38716;BME280;24833;49.324;8.694;2022-12-10T01:19:31;98728.34;;;1.44;95.73
38716;BME280;24833;49.324;8.694;2022-12-10T01:22:01;98732.81;;;1.43;96.11
38716;BME280;24833;49.324;8.694;2022-12-10T01:24:29;98731.97;;;1.43;96.15
38716;BME280;24833;49.324;8.694;2022-12-10T01:26:57;98735.59;;;1.42;96.01
38716;BME280;24833;49.324;8.694;2022-12-10T01:29:24;98733.78;;;1.42;95.68
38716;BME280;24833;49.324;8.694;2022-12-10T01:31:53;98737.25;;;1.43;95.75
38716;BME280;24833;49.324;8.694;2022-12-10T01:34:21;98731.97;;;1.43;95.89
38716;BME280;24833;49.324;8.694;2022-12-10T01:36:53;98739.06;;;1.42;95.72
38716;BME280;24833;49.324;8.694;2022-12-10T01:39:22;98732.97;;;1.42;95.93
38716;BME280;24833;49.324;8.694;2022-12-10T01:41:55;98735.59;;;1.42;95.83
38716;BME280;24833;49.324;8.694;2022-12-10T01:46:53;98740.88;;;1.42;95.67
38716;BME280;24833;49.324;8.694;2022-12-10T01:49:34;98741.84;;;1.41;95.74
38716;BME280;24833;49.324;8.694;2022-12-10T01:52:03;98743.63;;;1.40;95.66
38716;BME280;24833;49.324;8.694;2022-12-10T01:54:39;98748.06;;;1.40;95.85
38716;BME280;24833;49.324;8.694;2022-12-10T01:57:25;98754.16;;;1.40;95.81
38716;BME280;24833;49.324;8.694;2022-12-10T02:00:01;98763.03;;;1.39;95.67
38716;BME280;24833;49.324;8.694;2022-12-10T02:02:53;98761.38;;;1.38;95.57
38716;BME280;24833;49.324;8.694;2022-12-10T02:05:40;98770.09;;;1.39;95.73
38716;BME280;24833;49.324;8.694;2022-12-10T02:08:26;98770.25;;;1.37;95.72
38716;BME280;24833;49.324;8.694;2022-12-10T02:11:22;98762.53;;;1.35;95.76
38716;BME280;24833;49.324;8.694;2022-12-10T02:14:02;98772.25;;;1.35;95.94
38716;BME280;24833;49.324;8.694;2022-12-10T02:16:40;98760.91;;;1.34;96.26
38716;BME280;24833;49.324;8.694;2022-12-10T02:21:41;98761.03;;;1.33;95.87
38716;BME280;24833;49.324;8.694;2022-12-10T02:24:17;98751.34;;;1.33;95.77
38716;BME280;24833;49.324;8.694;2022-12-10T02:27:07;98755.66;;;1.34;95.78
38716;BME280;24833;49.324;8.694;2022-12-10T02:29:37;98754.81;;;1.34;95.95
38716;BME280;24833;49.324;8.694;2022-12-10T02:32:11;98759.22;;;1.33;95.88
38716;BME280;24833;49.324;8.694;2022-12-10T02:34:43;98759.22;;;1.33;95.75
38716;BME280;24833;49.324;8.694;2022-12-10T02:37:35;98754.81;;;1.34;95.79
38716;BME280;24833;49.324;8.694;2022-12-10T02:40:11;98750.38;;;1.34;95.79
38716;BME280;24833;49.324;8.694;2022-12-10T02:42:48;98752.19;;;1.34;95.94
38716;BME280;24833;49.324;8.694;2022-12-10T02:45:21;98746.09;;;1.33;96.25
38716;BME280;24833;49.324;8.694;2022-12-10T02:47:50;98746.09;;;1.33;95.81
38716;BME280;24833;49.324;8.694;2022-12-10T02:50:20;98743.44;;;1.33;95.59
38716;BME280;24833;49.324;8.694;2022-12-10T02:52:49;98743.44;;;1.33;95.95
38716;BME280;24833;49.324;8.694;2022-12-10T02:55:17;98745.25;;;1.33;96.06
38716;BME280;24833;49.324;8.694;2022-12-10T03:01:29;98737.38;;;1.33;95.99
38716;BME280;24833;49.324;8.694;2022-12-10T03:04:15;98737.38;;;1.33;95.70
38716;BME280;24833;49.324;8.694;2022-12-10T03:06:51;98743.44;;;1.33;95.96
38716;BME280;24833;49.324;8.694;2022-12-10T03:09:30;98736.56;;;1.32;95.77
38716;BME280;24833;49.324;8.694;2022-12-10T03:12:30;98746.41;;;1.30;95.65
38716;BME280;24833;49.324;8.694;2022-12-10T03:15:07;98747.06;;;1.32;95.85
38716;BME280;24833;49.324;8.694;2022-12-10T03:17:38;98743.78;;;1.30;95.61
38716;BME280;24833;49.324;8.694;2022-12-10T03:20:09;98736.91;;;1.29;95.77
38716;BME280;24833;49.324;8.694;2022-12-10T03:22:40;98735.25;;;1.28;96.02
38716;BME280;24833;49.324;8.694;2022-12-10T03:25:11;98737.06;;;1.28;95.91
38716;BME280;24833;49.324;8.694;2022-12-10T03:27:41;98735.25;;;1.28;95.54
38716;BME280;24833;49.324;8.694;2022-12-10T03:30:09;98726.69;;;1.26;95.61
38716;BME280;24833;49.324;8.694;2022-12-10T03:32:37;98731.94;;;1.26;95.87
38716;BME280;24833;49.324;8.694;2022-12-10T03:35:05;98721.44;;;1.26;95.77
38716;BME280;24833;49.324;8.694;2022-12-10T03:37:33;98725.88;;;1.26;95.95
38716;BME280;24833;49.324;8.694;2022-12-10T03:40:02;98727.84;;;1.24;95.76
38716;BME280;24833;49.324;8.694;2022-12-10T03:42:30;98733.09;;;1.24;96.04
38716;BME280;24833;49.324;8.694;2022-12-10T03:44:57;98730.63;;;1.22;95.60
38716;BME280;24833;49.324;8.694;2022-12-10T03:47:24;98740.16;;;1.23;95.79
38716;BME280;24833;49.324;8.694;2022-12-10T03:49:51;98741.16;;;1.22;95.69
38716;BME280;24833;49.324;8.694;2022-12-10T03:52:18;98734.25;;;1.21;95.72
38716;BME280;24833;49.324;8.694;2022-12-10T03:54:45;98745.72;;;1.20;95.80
38716;BME280;24833;49.324;8.694;2022-12-10T03:57:12;98751.16;;;1.19;95.68
38716;BME280;24833;49.324;8.694;2022-12-10T03:59:39;98748.69;;;1.17;95.73
38716;BME280;24833;49.324;8.694;2022-12-10T04:02:06;98747.06;;;1.16;95.73
38716;BME280;24833;49.324;8.694;2022-12-10T04:04:33;98745.41;;;1.15;95.81
38716;BME280;24833;49.324;8.694;2022-12-10T04:07:00;98745.72;;;1.12;95.60
38716;BME280;24833;49.324;8.694;2022-12-10T04:09:27;98749.34;;;1.11;95.57
38716;BME280;24833;49.324;8.694;2022-12-10T04:11:58;98744.25;;;1.09;95.97
38716;BME280;24833;49.324;8.694;2022-12-10T04:14:27;98753.94;;;1.09;95.37
38716;BME280;24833;49.324;8.694;2022-12-10T04:17:13;98754.09;;;1.07;95.67
38716;BME280;24833;49.324;8.694;2022-12-10T04:19:40;98745.53;;;1.05;95.63
38716;BME280;24833;49.324;8.694;2022-12-10T04:22:09;98750.97;;;1.04;95.79
38716;BME280;24833;49.324;8.694;2022-12-10T04:24:56;98756.38;;;1.02;95.65
38716;BME280;24833;49.324;8.694;2022-12-10T04:27:41;98755.56;;;1.02;95.72
38716;BME280;24833;49.324;8.694;2022-12-10T04:30:11;98756.56;;;1.01;95.63
38716;BME280;24833;49.324;8.694;2022-12-10T04:32:39;98757.50;;;1.00;95.77
38716;BME280;24833;49.324;8.694;2022-12-10T04:35:06;98758.38;;;1.00;95.71
38716;BME280;24833;49.324;8.694;2022-12-10T04:37:33;98761.13;;;0.99;95.70
38716;BME280;24833;49.324;8.694;2022-12-10T04:40:01;98755.88;;;0.99;95.59
38716;BME280;24833;49.324;8.694;2022-12-10T04:42:29;98766.38;;;0.99;95.71
38716;BME280;24833;49.324;8.694;2022-12-10T04:44:56;98770.00;;;0.98;95.82
38716;BME280;24833;49.324;8.694;2022-12-10T04:47:23;98766.38;;;0.99;95.49
38716;BME280;24833;49.324;8.694;2022-12-10T04:49:50;98770.00;;;0.98;95.75
38716;BME280;24833;49.324;8.694;2022-12-10T04:52:18;98768.34;;;0.97;95.53
38716;BME280;24833;49.324;8.694;2022-12-10T04:54:45;98771.00;;;0.97;95.52
38716;BME280;24833;49.324;8.694;2022-12-10T04:57:12;98775.41;;;0.96;95.48
38716;BME280;24833;49.324;8.694;2022-12-10T04:59:39;98771.31;;;0.94;95.42
38716;BME280;24833;49.324;8.694;2022-12-10T05:02:06;98780.84;;;0.95;95.42
38716;BME280;24833;49.324;8.694;2022-12-10T05:04:33;98773.94;;;0.94;95.55
38716;BME280;24833;49.324;8.694;2022-12-10T05:07:01;98780.97;;;0.93;95.72
38716;BME280;24833;49.324;8.694;2022-12-10T05:09:28;98778.50;;;0.92;95.54
38716;BME280;24833;49.324;8.694;2022-12-10T05:11:55;98776.06;;;0.90;95.37
38716;BME280;24833;49.324;8.694;2022-12-10T05:14:22;98783.94;;;0.90;95.51
38716;BME280;24833;49.324;8.694;2022-12-10T05:16:50;98795.44;;;0.89;95.66
38716;BME280;24833;49.324;8.694;2022-12-10T05:19:18;98787.53;;;0.89;95.48
38716;BME280;24833;49.324;8.694;2022-12-10T05:21:46;98794.63;;;0.89;95.36
38716;BME280;24833;49.324;8.694;2022-12-10T05:24:33;98795.59;;;0.88;95.65
38716;BME280;24833;49.324;8.694;2022-12-10T05:27:00;98793.94;;;0.87;95.62
38716;BME280;24833;49.324;8.694;2022-12-10T05:29:27;98803.63;;;0.86;95.23
38716;BME280;24833;49.324;8.694;2022-12-10T05:31:54;98799.34;;;0.85;95.59
38716;BME280;24833;49.324;8.694;2022-12-10T05:34:22;98800.31;;;0.84;95.25
38716;BME280;24833;49.324;8.694;2022-12-10T05:36:49;98796.06;;;0.83;95.42
38716;BME280;24833;49.324;8.694;2022-12-10T05:39:17;98799.50;;;0.84;95.72
38716;BME280;24833;49.324;8.694;2022-12-10T05:41:44;98800.50;;;0.82;95.48
38716;BME280;24833;49.324;8.694;2022-12-10T05:44:13;98802.31;;;0.82;95.40
38716;BME280;24833;49.324;8.694;2022-12-10T05:46:40;98801.47;;;0.81;95.63
38716;BME280;24833;49.324;8.694;2022-12-10T05:49:07;98798.84;;;0.81;95.37
38716;BME280;24833;49.324;8.694;2022-12-10T05:51:36;98801.47;;;0.81;95.63
38716;BME280;24833;49.324;8.694;2022-12-10T05:54:05;98805.09;;;0.80;95.45
38716;BME280;24833;49.324;8.694;2022-12-10T05:56:34;98806.72;;;0.81;95.58
38716;BME280;24833;49.324;8.694;2022-12-10T05:59:04;98802.47;;;0.80;95.61
38716;BME280;24833;49.324;8.694;2022-12-10T06:01:35;98806.88;;;0.80;95.59
38716;BME280;24833;49.324;8.694;2022-12-10T06:04:04;98808.69;;;0.79;95.40
38716;BME280;24833;49.324;8.694;2022-12-10T06:06:35;98813.94;;;0.79;95.55
38716;BME280;24833;49.324;8.694;2022-12-10T06:09:05;98812.28;;;0.78;95.50
38716;BME280;24833;49.324;8.694;2022-12-10T06:11:32;98807.03;;;0.78;95.43
38716;BME280;24833;49.324;8.694;2022-12-10T06:13:59;98817.53;;;0.78;95.56
38716;BME280;24833;49.324;8.694;2022-12-10T06:16:29;98817.69;;;0.77;95.59
38716;BME280;24833;49.324;8.694;2022-12-10T06:18:56;98830.00;;;0.76;95.28
38716;BME280;24833;49.324;8.694;2022-12-10T06:21:23;98820.50;;;0.75;95.57
38716;BME280;24833;49.324;8.694;2022-12-10T06:23:51;98825.75;;;0.75;95.43
38716;BME280;24833;49.324;8.694;2022-12-10T06:26:23;98830.19;;;0.75;95.49
38716;BME280;24833;49.324;8.694;2022-12-10T06:28:51;98839.88;;;0.74;95.49
38716;BME280;24833;49.324;8.694;2022-12-10T06:31:19;98835.56;;;0.73;95.44
38716;BME280;24833;49.324;8.694;2022-12-10T06:33:46;98841.81;;;0.72;95.33
38716;BME280;24833;49.324;8.694;2022-12-10T06:36:15;98843.63;;;0.72;95.20
38716;BME280;24833;49.324;8.694;2022-12-10T06:38:43;98847.06;;;0.72;95.31
38716;BME280;24833;49.324;8.694;2022-12-10T06:41:13;98845.56;;;0.70;95.44
38716;BME280;24833;49.324;8.694;2022-12-10T06:43:41;98849.19;;;0.69;95.18
38716;BME280;24833;49.324;8.694;2022-12-10T06:46:13;98851.00;;;0.68;95.19
38716;BME280;24833;49.324;8.694;2022-12-10T06:48:41;98851.13;;;0.67;95.43
38716;BME280;24833;49.324;8.694;2022-12-10T06:51:11;98857.22;;;0.67;95.49
38716;BME280;24833;49.324;8.694;2022-12-10T06:53:39;98857.22;;;0.67;95.41
38716;BME280;24833;49.324;8.694;2022-12-10T06:56:07;98850.31;;;0.66;95.52
38716;BME280;24833;49.324;8.694;2022-12-10T06:58:37;98860.81;;;0.66;95.38
38716;BME280;24833;49.324;8.694;2022-12-10T07:01:10;98848.66;;;0.65;95.18
38716;BME280;24833;49.324;8.694;2022-12-10T07:03:38;98853.91;;;0.65;95.22
38716;BME280;24833;49.324;8.694;2022-12-10T07:06:07;98849.66;;;0.64;95.23
38716;BME280;24833;49.324;8.694;2022-12-10T07:08:35;98850.63;;;0.63;95.39
38716;BME280;24833;49.324;8.694;2022-12-10T07:11:15;98855.06;;;0.63;95.13
38716;BME280;24833;49.324;8.694;2022-12-10T07:13:42;98863.91;;;0.62;95.18
38716;BME280;24833;49.324;8.694;2022-12-10T07:16:25;98865.72;;;0.61;95.22
38716;BME280;24833;49.324;8.694;2022-12-10T07:18:54;98872.78;;;0.61;95.04
38716;BME280;24833;49.324;8.694;2022-12-10T07:21:36;98872.91;;;0.59;95.21
38716;BME280;24833;49.324;8.694;2022-12-10T07:24:12;98870.28;;;0.59;95.25
38716;BME280;24833;49.324;8.694;2022-12-10T07:26:42;98873.91;;;0.58;95.48
38716;BME280;24833;49.324;8.694;2022-12-10T07:29:15;98883.59;;;0.58;95.17
38716;BME280;24833;49.324;8.694;2022-12-10T07:31:43;98881.13;;;0.56;95.16
38716;BME280;24833;49.324;8.694;2022-12-10T07:34:11;98877.50;;;0.57;95.37
38716;BME280;24833;49.324;8.694;2022-12-10T07:36:39;98888.00;;;0.57;95.26
38716;BME280;24833;49.324;8.694;2022-12-10T07:39:08;98882.91;;;0.56;95.44
38716;BME280;24833;49.324;8.694;2022-12-10T07:41:36;98891.63;;;0.56;95.20
38716;BME280;24833;49.324;8.694;2022-12-10T07:44:04;98888.00;;;0.57;95.51
38716;BME280;24833;49.324;8.694;2022-12-10T07:46:33;98895.22;;;0.55;95.19
38716;BME280;24833;49.324;8.694;2022-12-10T07:49:02;98895.06;;;0.57;95.35
38716;BME280;24833;49.324;8.694;2022-12-10T07:51:29;98900.31;;;0.57;95.57
38716;BME280;24833;49.324;8.694;2022-12-10T07:53:57;98906.41;;;0.57;95.57
38716;BME280;24833;49.324;8.694;2022-12-10T07:56:24;98903.78;;;0.57;95.44
38716;BME280;24833;49.324;8.694;2022-12-10T07:58:52;98903.78;;;0.57;95.49
38716;BME280;24833;49.324;8.694;2022-12-10T08:01:25;98907.38;;;0.56;95.00
38716;BME280;24833;49.324;8.694;2022-12-10T08:03:54;98914.28;;;0.57;95.29
38716;BME280;24833;49.324;8.694;2022-12-10T08:06:27;98910.81;;;0.57;95.42
38716;BME280;24833;49.324;8.694;2022-12-10T08:08:55;98917.72;;;0.58;95.68
38716;BME280;24833;49.324;8.694;2022-12-10T08:11:23;98920.19;;;0.59;95.27
38716;BME280;24833;49.324;8.694;2022-12-10T08:13:50;98915.75;;;0.60;95.69
38716;BME280;24833;49.324;8.694;2022-12-10T08:16:25;98920.06;;;0.61;95.74
38716;BME280;24833;49.324;8.694;2022-12-10T08:18:55;98922.53;;;0.62;95.81
38716;BME280;24833;49.324;8.694;2022-12-10T08:21:26;98918.91;;;0.63;95.71
38716;BME280;24833;49.324;8.694;2022-12-10T08:23:54;98928.44;;;0.64;95.83
38716;BME280;24833;49.324;8.694;2022-12-10T08:26:25;98921.38;;;0.65;95.84
38716;BME280;24833;49.324;8.694;2022-12-10T08:28:54;98918.75;;;0.65;95.72
38716;BME280;24833;49.324;8.694;2022-12-10T08:31:22;98928.28;;;0.66;95.76
38716;BME280;24833;49.324;8.694;2022-12-10T08:33:50;98924.66;;;0.67;95.93
38716;BME280;24833;49.324;8.694;2022-12-10T08:36:18;98921.91;;;0.68;96.10
38716;BME280;24833;49.324;8.694;2022-12-10T08:38:46;98918.31;;;0.69;96.07
38716;BME280;24833;49.324;8.694;2022-12-10T08:41:19;98920.94;;;0.69;96.01
38716;BME280;24833;49.324;8.694;2022-12-10T08:43:48;98926.84;;;0.71;95.92
38716;BME280;24833;49.324;8.694;2022-12-10T08:46:16;98926.84;;;0.71;96.10
38716;BME280;24833;49.324;8.694;2022-12-10T08:48:43;98933.75;;;0.72;96.22
38716;BME280;24833;49.324;8.694;2022-12-10T08:51:14;98927.66;;;0.72;96.16
38716;BME280;24833;49.324;8.694;2022-12-10T08:53:41;98925.88;;;0.72;95.73
38716;BME280;24833;49.324;8.694;2022-12-10T08:56:08;98932.09;;;0.71;95.98
38716;BME280;24833;49.324;8.694;2022-12-10T08:58:37;98927.50;;;0.73;96.16
38716;BME280;24833;49.324;8.694;2022-12-10T09:01:16;98922.94;;;0.75;96.13
38716;BME280;24833;49.324;8.694;2022-12-10T09:03:43;98931.31;;;0.79;96.38
38716;BME280;24833;49.324;8.694;2022-12-10T09:06:18;98930.88;;;0.84;96.49
38716;BME280;24833;49.324;8.694;2022-12-10T09:08:46;98935.50;;;0.90;96.83
38716;BME280;24833;49.324;8.694;2022-12-10T09:13:51;98927.69;;;0.98;96.69
38716;BME280;24833;49.324;8.694;2022-12-10T09:16:21;98941.19;;;1.03;96.79
38716;BME280;24833;49.324;8.694;2022-12-10T09:18:48;98940.84;;;1.06;96.75
38716;BME280;24833;49.324;8.694;2022-12-10T09:21:17;98949.44;;;1.08;96.58
38716;BME280;24833;49.324;8.694;2022-12-10T09:23:44;98946.81;;;1.08;96.51
38716;BME280;24833;49.324;8.694;2022-12-10T09:26:15;98948.44;;;1.09;96.41
38716;BME280;24833;49.324;8.694;2022-12-10T09:28:43;98954.53;;;1.09;96.60
38716;BME280;24833;49.324;8.694;2022-12-10T09:31:12;98956.34;;;1.09;96.15
38716;BME280;24833;49.324;8.694;2022-12-10T09:33:48;98959.63;;;1.11;96.49
38716;BME280;24833;49.324;8.694;2022-12-10T09:36:16;98959.31;;;1.14;96.51
38716;BME280;24833;49.324;8.694;2022-12-10T09:38:44;98954.06;;;1.14;96.71
38716;BME280;24833;49.324;8.694;2022-12-10T09:44:46;98962.63;;;1.16;96.73
38716;BME280;24833;49.324;8.694;2022-12-10T09:47:17;98967.88;;;1.16;96.46
38716;BME280;24833;49.324;8.694;2022-12-10T09:50:23;98966.88;;;1.17;96.61
38716;BME280;24833;49.324;8.694;2022-12-10T09:52:53;98964.25;;;1.17;96.46
38716;BME280;24833;49.324;8.694;2022-12-10T09:55:34;98960.81;;;1.17;96.64
38716;BME280;24833;49.324;8.694;2022-12-10T09:58:05;98957.34;;;1.16;96.42
38716;BME280;24833;49.324;8.694;2022-12-10T10:00:39;98961.78;;;1.16;96.43
38716;BME280;24833;49.324;8.694;2022-12-10T10:03:13;98956.69;;;1.14;96.21
38716;BME280;24833;49.324;8.694;2022-12-10T10:05:48;98958.63;;;1.12;96.34
38716;BME280;24833;49.324;8.694;2022-12-10T10:08:38;98966.69;;;1.11;96.32
38716;BME280;24833;49.324;8.694;2022-12-10T10:11:17;98963.22;;;1.10;96.25
38716;BME280;24833;49.324;8.694;2022-12-10T10:13:57;98973.75;;;1.10;96.28
38716;BME280;24833;49.324;8.694;2022-12-10T10:16:34;98974.56;;;1.11;96.38
38716;BME280;24833;49.324;8.694;2022-12-10T10:19:19;98973.41;;;1.13;96.73
38716;BME280;24833;49.324;8.694;2022-12-10T10:21:49;98979.22;;;1.17;96.73
38716;BME280;24833;49.324;8.694;2022-12-10T10:24:33;98975.44;;;1.19;96.77
38716;BME280;24833;49.324;8.694;2022-12-10T10:27:12;98980.22;;;1.24;97.04
38716;BME280;24833;49.324;8.694;2022-12-10T10:29:46;98981.41;;;1.29;97.20
38716;BME280;24833;49.324;8.694;2022-12-10T10:35:27;98973.09;;;1.42;97.58
38716;BME280;24833;49.324;8.694;2022-12-10T10:38:04;98978.56;;;1.49;97.69
38716;BME280;24833;49.324;8.694;2022-12-10T10:40:44;98977.94;;;1.55;97.68
38716;BME280;24833;49.324;8.694;2022-12-10T10:43:38;98975.34;;;1.63;97.91
38716;BME280;24833;49.324;8.694;2022-12-10T10:46:20;98973.72;;;1.70;98.09
38716;BME280;24833;49.324;8.694;2022-12-10T10:48:48;98971.44;;;1.75;98.14
38716;BME280;24833;49.324;8.694;2022-12-10T10:51:21;98979.53;;;1.82;97.94
38716;BME280;24833;49.324;8.694;2022-12-10T10:53:55;98983.31;;;1.87;97.98
38716;BME280;24833;49.324;8.694;2022-12-10T10:56:31;98980.19;;;1.92;98.00
38716;BME280;24833;49.324;8.694;2022-12-10T10:59:28;98984.81;;;1.98;98.01
38716;BME280;24833;49.324;8.694;2022-12-10T11:05:24;98988.81;;;2.10;97.90
38716;BME280;24833;49.324;8.694;2022-12-10T11:08:13;98982.06;;;2.16;98.07
38716;BME280;24833;49.324;8.694;2022-12-10T11:10:52;98981.44;;;2.22;98.47
38716;BME280;24833;49.324;8.694;2022-12-10T11:13:27;98989.66;;;2.27;98.03
38716;BME280;24833;49.324;8.694;2022-12-10T11:16:09;98980.28;;;2.33;98.23
38716;BME280;24833;49.324;8.694;2022-12-10T11:21:20;98972.91;;;2.36;97.85
38716;BME280;24833;49.324;8.694;2022-12-10T11:23:53;98981.44;;;2.38;97.84
38716;BME280;24833;49.324;8.694;2022-12-10T11:35:36;98990.34;;;2.45;97.94
38716;BME280;24833;49.324;8.694;2022-12-10T11:38:45;98983.25;;;2.46;97.67
38716;BME280;24833;49.324;8.694;2022-12-10T11:41:51;98988.69;;;2.44;97.84
38716;BME280;24833;49.324;8.694;2022-12-10T11:44:41;98988.88;;;2.43;97.58
38716;BME280;24833;49.324;8.694;2022-12-10T11:56:45;98982.78;;;2.51;98.09
38716;BME280;24833;49.324;8.694;2022-12-10T12:03:14;98988.69;;;2.53;97.37
38716;BME280;24833;49.324;8.694;2022-12-10T12:06:17;98986.41;;;2.58;98.21
38716;BME280;24833;49.324;8.694;2022-12-10T12:12:33;98993.31;;;2.59;98.10
38716;BME280;24833;49.324;8.694;2022-12-10T12:15:21;99010.13;;;2.58;97.84
38716;BME280;24833;49.324;8.694;2022-12-10T12:18:00;99003.84;;;2.59;97.89
38716;BME280;24833;49.324;8.694;2022-12-10T12:21:04;99008.13;;;2.60;97.74
38716;BME280;24833;49.324;8.694;2022-12-10T12:23:42;99001.22;;;2.59;97.37
38716;BME280;24833;49.324;8.694;2022-12-10T12:26:27;99004.53;;;2.61;97.84
38716;BME280;24833;49.324;8.694;2022-12-10T12:32:05;99008.47;;;2.65;97.79
38716;BME280;24833;49.324;8.694;2022-12-10T12:34:44;99004.03;;;2.65;97.33
38716;BME280;24833;49.324;8.694;2022-12-10T12:37:17;99013.91;;;2.71;97.62
38716;BME280;24833;49.324;8.694;2022-12-10T12:42:43;99006.50;;;2.83;98.56
38716;BME280;24833;49.324;8.694;2022-12-10T12:45:20;99000.59;;;2.89;98.52
38716;BME280;24833;49.324;8.694;2022-12-10T12:51:04;99010.63;;;3.02;98.82
38716;BME280;24833;49.324;8.694;2022-12-10T12:53:34;98999.41;;;3.08;98.62
38716;BME280;24833;49.324;8.694;2022-12-10T13:00:09;99009.28;;;3.22;98.72
38716;BME280;24833;49.324;8.694;2022-12-10T13:05:27;99014.69;;;3.37;98.52
38716;BME280;24833;49.324;8.694;2022-12-10T13:14:11;99024.81;;;3.73;98.69
38716;BME280;24833;49.324;8.694;2022-12-10T13:19:26;99027.69;;;3.94;99.25
38716;BME280;24833;49.324;8.694;2022-12-10T13:29:59;99023.88;;;4.28;99.59
38716;BME280;24833;49.324;8.694;2022-12-10T13:37:54;99038.16;;;4.50;99.15
38716;BME280;24833;49.324;8.694;2022-12-10T13:48:58;99046.66;;;4.37;97.55
38716;BME280;24833;49.324;8.694;2022-12-10T14:00:15;99075.81;;;4.13;98.24
38716;BME280;24833;49.324;8.694;2022-12-10T14:06:04;99080.69;;;3.93;96.99
38716;BME280;24833;49.324;8.694;2022-12-10T14:08:38;99092.28;;;3.83;96.86
38716;BME280;24833;49.324;8.694;2022-12-10T14:11:19;99094.25;;;3.73;96.99
38716;BME280;24833;49.324;8.694;2022-12-10T14:13:53;99092.81;;;3.63;95.79
38716;BME280;24833;49.324;8.694;2022-12-10T14:16:22;99094.63;;;3.54;96.25
38716;BME280;24833;49.324;8.694;2022-12-10T14:19:04;99096.81;;;3.42;95.97
38716;BME280;24833;49.324;8.694;2022-12-10T14:21:38;99109.97;;;3.34;96.14
38716;BME280;24833;49.324;8.694;2022-12-10T14:24:06;99103.25;;;3.23;95.93
38716;BME280;24833;49.324;8.694;2022-12-10T14:27:17;99101.44;;;3.16;96.32
38716;BME280;24833;49.324;8.694;2022-12-10T14:29:47;99112.63;;;3.10;96.62
38716;BME280;24833;49.324;8.694;2022-12-10T14:32:21;99116.94;;;3.03;96.71
38716;BME280;24833;49.324;8.694;2022-12-10T14:34:55;99117.41;;;2.98;96.72
38716;BME280;24833;49.324;8.694;2022-12-10T14:37:36;99117.88;;;2.93;97.12
38716;BME280;24833;49.324;8.694;2022-12-10T14:40:06;99119.53;;;2.86;96.38
38716;BME280;24833;49.324;8.694;2022-12-10T14:42:37;99128.06;;;2.80;96.48
38716;BME280;24833;49.324;8.694;2022-12-10T14:45:05;99121.81;;;2.73;96.32
38716;BME280;24833;49.324;8.694;2022-12-10T14:47:37;99129.69;;;2.65;95.81
38716;BME280;24833;49.324;8.694;2022-12-10T14:50:16;99133.66;;;2.61;96.37
38716;BME280;24833;49.324;8.694;2022-12-10T14:52:50;99137.75;;;2.55;96.15
38716;BME280;24833;49.324;8.694;2022-12-10T14:55:21;99141.03;;;2.49;96.15
38716;BME280;24833;49.324;8.694;2022-12-10T14:58:02;99146.75;;;2.44;96.38
38716;BME280;24833;49.324;8.694;2022-12-10T15:00:31;99157.75;;;2.40;96.52
38716;BME280;24833;49.324;8.694;2022-12-10T15:03:07;99149.53;;;2.35;96.50
38716;BME280;24833;49.324;8.694;2022-12-10T15:05:36;99147.19;;;2.32;96.59
38716;BME280;24833;49.324;8.694;2022-12-10T15:08:14;99154.63;;;2.28;96.46
38716;BME280;24833;49.324;8.694;2022-12-10T15:10:46;99157.72;;;2.24;96.30
38716;BME280;24833;49.324;8.694;2022-12-10T15:13:41;99156.22;;;2.21;96.50
38716;BME280;24833;49.324;8.694;2022-12-10T15:16:28;99155.88;;;2.16;96.40
38716;BME280;24833;49.324;8.694;2022-12-10T15:19:19;99158.97;;;2.11;96.03
38716;BME280;24833;49.324;8.694;2022-12-10T15:21:47;99162.06;;;2.07;96.20
38716;BME280;24833;49.324;8.694;2022-12-10T15:24:25;99163.19;;;2.04;96.12
38716;BME280;24833;49.324;8.694;2022-12-10T15:26:53;99170.72;;;1.99;96.02
38716;BME280;24833;49.324;8.694;2022-12-10T15:31:58;99174.81;;;1.94;96.11